Time;durP1;ratioP1;P1;durP2;ratioP2;P2;SDS_P1;SDS_P2;PMS_P1;PMS_P2;Temp;Humidity;BMP_temperature;BMP_pressure;BME280_temperature;BME280_humidity;BME280_pressure;Samples;Min_cycle;Max_cycle;Signal;HPM_P1;HPM_P2
2023/01/15 00:00:58;;;;;;;0.00;0.00;;;;;;;;;;5094716;28;20047;-84
2023/01/15 00:03:24;;;;;;;0.00;0.00;;;;;;;;;;5112692;28;20130;-84
2023/01/15 00:05:50;;;;;;;0.00;0.00;;;;;;;;;;5112588;28;20189;-84
2023/01/15 00:08:16;;;;;;;0.00;0.00;;;;;;;;;;5112706;28;20035;-85
2023/01/15 00:10:42;;;;;;;0.00;0.00;;;;;;;;;;5111553;28;20035;-84
2023/01/15 00:13:08;;;;;;;0.00;0.00;;;;;;;;;;5111676;28;20126;-85
2023/01/15 00:15:34;;;;;;;0.00;0.00;;;;;;;;;;5111452;28;20529;-84
2023/01/15 00:18:00;;;;;;;0.00;0.00;;;;;;;;;;5111660;28;20075;-84
2023/01/15 00:20:26;;;;;;;0.00;0.00;;;;;;;;;;5111475;28;20082;-84
2023/01/15 00:22:53;;;;;;;0.00;0.00;;;;;;;;;;5111589;28;20035;-84
2023/01/15 00:28:03;;;;;;;0.00;0.00;;;;;;;;;;5112817;28;20035;-84
2023/01/15 00:30:29;;;;;;;0.00;0.00;;;;;;;;;;5111545;28;20114;-84
2023/01/15 00:32:55;;;;;;;0.00;0.00;;;;;;;;;;5094128;28;20471;-84
2023/01/15 00:35:22;;;;;;;0.00;0.00;;;;;;;;;;5111748;28;20060;-85
2023/01/15 00:37:48;;;;;;;0.00;0.00;;;;;;;;;;5115162;28;20048;-84
2023/01/15 00:40:16;;;;;;;0.00;0.00;;;;;;;;;;5115141;28;20039;-84
2023/01/15 00:42:42;;;;;;;0.00;0.00;;;;;;;;;;5115070;28;20067;-84
2023/01/15 00:45:09;;;;;;;0.00;0.00;;;;;;;;;;5114985;28;20457;-84
2023/01/15 00:47:46;;;;;;;0.00;0.00;;;;;;;;;;5114900;28;20076;-83
2023/01/15 00:50:14;;;;;;;0.00;0.00;;;;;;;;;;5116445;28;20328;-83
2023/01/15 00:52:41;;;;;;;0.00;0.00;;;;;;;;;;5114897;28;20066;-84
2023/01/15 00:55:07;;;;;;;0.00;0.00;;;;;;;;;;5116246;28;20043;-84
2023/01/15 00:57:34;;;;;;;0.00;0.00;;;;;;;;;;5115871;28;20643;-84
2023/01/15 01:00:00;;;;;;;0.00;0.00;;;;;;;;;;5114703;28;20054;-84
2023/01/15 01:02:26;;;;;;;0.00;0.00;;;;;;;;;;5114423;28;20148;-84
2023/01/15 01:04:52;;;;;;;0.00;0.00;;;;;;;;;;5114480;28;20054;-84
2023/01/15 01:07:18;;;;;;;0.00;0.00;;;;;;;;;;5115505;28;20036;-84
2023/01/15 01:09:44;;;;;;;0.00;0.00;;;;;;;;;;5115841;28;20047;-84
2023/01/15 01:12:10;;;;;;;0.00;0.00;;;;;;;;;;5114340;28;20044;-84
2023/01/15 01:14:37;;;;;;;0.00;0.00;;;;;;;;;;5114532;28;20483;-85
2023/01/15 01:17:03;;;;;;;0.00;0.00;;;;;;;;;;5114310;28;20044;-85
2023/01/15 01:19:29;;;;;;;0.00;0.00;;;;;;;;;;5114294;28;20050;-85
2023/01/15 01:21:55;;;;;;;0.00;0.00;;;;;;;;;;5114299;28;20122;-85
2023/01/15 01:24:22;;;;;;;0.00;0.00;;;;;;;;;;5114366;28;20115;-84
2023/01/15 01:26:49;;;;;;;0.00;0.00;;;;;;;;;;5115451;28;20039;-84
2023/01/15 01:29:16;;;;;;;0.00;0.00;;;;;;;;;;5114433;28;20432;-84
2023/01/15 01:31:42;;;;;;;0.00;0.00;;;;;;;;;;5114254;28;20097;-84
2023/01/15 01:34:08;;;;;;;0.00;0.00;;;;;;;;;;5113754;28;20032;-84
2023/01/15 01:36:35;;;;;;;0.00;0.00;;;;;;;;;;5113989;28;20055;-84
2023/01/15 01:39:03;;;;;;;0.00;0.00;;;;;;;;;;5113856;28;20050;-84
2023/01/15 01:41:29;;;;;;;0.00;0.00;;;;;;;;;;5113817;28;20078;-84
2023/01/15 01:43:58;;;;;;;0.00;0.00;;;;;;;;;;5113751;28;20070;-84
2023/01/15 01:46:25;;;;;;;0.00;0.00;;;;;;;;;;5113180;28;20044;-84
2023/01/15 01:48:53;;;;;;;0.00;0.00;;;;;;;;;;5113621;28;20497;-84
2023/01/15 01:51:21;;;;;;;0.00;0.00;;;;;;;;;;5113615;28;20040;-84
2023/01/15 01:53:47;;;;;;;0.00;0.00;;;;;;;;;;5113244;28;20040;-84
2023/01/15 01:56:16;;;;;;;0.00;0.00;;;;;;;;;;5113425;28;20482;-84
2023/01/15 01:58:43;;;;;;;0.00;0.00;;;;;;;;;;5113355;28;20482;-84
2023/01/15 02:01:09;;;;;;;0.00;0.00;;;;;;;;;;5113278;28;20229;-84
2023/01/15 02:03:37;;;;;;;0.00;0.00;;;;;;;;;;5113083;28;20122;-84
2023/01/15 02:06:05;;;;;;;0.00;0.00;;;;;;;;;;5096095;28;20095;-84
2023/01/15 02:08:31;;;;;;;0.00;0.00;;;;;;;;;;5114258;28;20036;-84
2023/01/15 02:10:57;;;;;;;0.00;0.00;;;;;;;;;;5096348;28;20036;-84
2023/01/15 02:13:29;;;;;;;0.00;0.00;;;;;;;;;;5112887;28;20048;-84
2023/01/15 02:16:00;;;;;;;0.00;0.00;;;;;;;;;;5113075;28;20127;-84
2023/01/15 02:18:31;;;;;;;0.00;0.00;;;;;;;;;;5113123;28;20059;-84
2023/01/15 02:21:04;;;;;;;0.00;0.00;;;;;;;;;;5113096;28;20554;-84
2023/01/15 02:23:44;;;;;;;0.00;0.00;;;;;;;;;;5095682;28;20066;-84
2023/01/15 02:26:26;;;;;;;0.00;0.00;;;;;;;;;;5112847;28;20454;-83
2023/01/15 02:28:54;;;;;;;0.00;0.00;;;;;;;;;;5112591;28;20100;-83
2023/01/15 02:31:40;;;;;;;0.00;0.00;;;;;;;;;;5112879;28;20556;-84
2023/01/15 02:34:11;;;;;;;0.00;0.00;;;;;;;;;;5112217;28;20075;-84
2023/01/15 02:36:40;;;;;;;0.00;0.00;;;;;;;;;;5112654;28;20035;-84
2023/01/15 02:39:08;;;;;;;0.00;0.00;;;;;;;;;;5112609;28;20079;-84
2023/01/15 02:42:00;;;;;;;0.00;0.00;;;;;;;;;;5112507;28;20478;-84
2023/01/15 02:44:27;;;;;;;0.00;0.00;;;;;;;;;;5108512;28;20176;-85
2023/01/15 02:46:55;;;;;;;0.00;0.00;;;;;;;;;;5112533;28;20051;-85
2023/01/15 02:49:22;;;;;;;0.00;0.00;;;;;;;;;;5112274;28;20040;-85
2023/01/15 02:51:57;;;;;;;0.00;0.00;;;;;;;;;;5112383;28;20563;-85
2023/01/15 02:54:25;;;;;;;0.00;0.00;;;;;;;;;;5111902;28;20047;-85
2023/01/15 02:56:52;;;;;;;0.00;0.00;;;;;;;;;;5112274;28;20203;-85
2023/01/15 02:59:22;;;;;;;0.00;0.00;;;;;;;;;;5111201;28;20092;-85
2023/01/15 03:01:59;;;;;;;0.00;0.00;;;;;;;;;;5111972;28;20039;-84
2023/01/15 03:04:32;;;;;;;0.00;0.00;;;;;;;;;;5111689;28;20108;-85
2023/01/15 03:07:05;;;;;;;0.03;0.00;;;;;;;;;;5113358;28;20040;-84
2023/01/15 03:09:31;;;;;;;0.00;0.00;;;;;;;;;;5111907;28;20123;-84
2023/01/15 03:12:03;;;;;;;0.00;0.00;;;;;;;;;;5111936;28;20047;-84
2023/01/15 03:14:50;;;;;;;0.00;0.00;;;;;;;;;;5111532;28;20044;-84
2023/01/15 03:17:19;;;;;;;0.00;0.00;;;;;;;;;;5113343;28;20122;-84
2023/01/15 03:19:50;;;;;;;0.10;0.10;;;;;;;;;;5094857;28;20039;-84
2023/01/15 03:22:19;;;;;;;0.00;0.00;;;;;;;;;;5112070;28;20047;-83
2023/01/15 03:25:03;;;;;;;0.00;0.00;;;;;;;;;;5111273;28;20044;-84
2023/01/15 03:27:29;;;;;;;0.00;0.00;;;;;;;;;;5112063;28;20114;-84
2023/01/15 03:30:00;;;;;;;0.00;0.00;;;;;;;;;;5112673;28;20036;-84
2023/01/15 03:32:26;;;;;;;0.00;0.00;;;;;;;;;;5111598;28;20032;-84
2023/01/15 03:34:54;;;;;;;0.00;0.00;;;;;;;;;;5111068;28;20059;-83
2023/01/15 03:37:21;;;;;;;1.35;0.40;;;;;;;;;;5111790;28;20470;-83
2023/01/15 03:39:48;;;;;;;0.00;0.00;;;;;;;;;;5111387;28;20051;-83
2023/01/15 03:42:15;;;;;;;0.00;0.00;;;;;;;;;;5111564;28;20039;-83
2023/01/15 03:44:57;;;;;;;0.00;0.00;;;;;;;;;;5111192;28;20040;-84
2023/01/15 03:47:34;;;;;;;0.00;0.00;;;;;;;;;;5111493;28;20118;-84
2023/01/15 03:50:19;;;;;;;0.00;0.00;;;;;;;;;;5111180;28;20043;-84
2023/01/15 03:52:54;;;;;;;0.00;0.00;;;;;;;;;;5111490;28;20036;-84
2023/01/15 03:55:27;;;;;;;0.00;0.00;;;;;;;;;;5111553;28;20051;-84
2023/01/15 03:58:02;;;;;;;0.00;0.00;;;;;;;;;;5112688;28;20051;-85
2023/01/15 04:00:31;;;;;;;0.00;0.00;;;;;;;;;;5094178;28;20075;-84
2023/01/15 04:02:59;;;;;;;0.10;0.00;;;;;;;;;;5111357;28;20118;-84
2023/01/15 04:05:25;;;;;;;0.00;0.00;;;;;;;;;;5110928;28;20051;-84
2023/01/15 04:07:52;;;;;;;0.00;0.00;;;;;;;;;;5111381;28;20032;-84
2023/01/15 04:10:18;;;;;;;0.00;0.00;;;;;;;;;;5113470;28;20427;-84
2023/01/15 04:12:45;;;;;;;0.00;0.00;;;;;;;;;;5098493;28;20135;-84
2023/01/15 04:15:11;;;;;;;0.00;0.00;;;;;;;;;;5098369;28;20075;-84
2023/01/15 04:17:37;;;;;;;0.00;0.00;;;;;;;;;;5115525;28;20547;-84
2023/01/15 04:20:04;;;;;;;0.00;0.00;;;;;;;;;;5115211;28;20097;-84
2023/01/15 04:22:30;;;;;;;0.00;0.00;;;;;;;;;;5115277;28;20051;-84
2023/01/15 04:24:56;;;;;;;0.00;0.00;;;;;;;;;;5114937;28;20189;-84
2023/01/15 04:27:22;;;;;;;0.00;0.00;;;;;;;;;;5115523;28;20101;-84
2023/01/15 04:29:48;;;;;;;0.30;0.10;;;;;;;;;;5098158;28;20470;-85
2023/01/15 04:32:14;;;;;;;0.00;0.00;;;;;;;;;;5116569;28;20047;-84
2023/01/15 04:34:40;;;;;;;0.00;0.00;;;;;;;;;;5114655;28;20056;-84
2023/01/15 04:37:06;;;;;;;0.00;0.00;;;;;;;;;;5116526;28;20105;-84
2023/01/15 04:39:32;;;;;;;0.00;0.00;;;;;;;;;;5115153;28;20055;-84
2023/01/15 04:44:42;;;;;;;0.00;0.00;;;;;;;;;;5114639;28;20126;-84
2023/01/15 04:47:09;;;;;;;0.00;0.00;;;;;;;;;;5115251;28;20078;-83
2023/01/15 04:49:35;;;;;;;0.00;0.00;;;;;;;;;;5116066;28;20036;-84
2023/01/15 04:52:01;;;;;;;0.00;0.00;;;;;;;;;;5115019;28;20040;-84
2023/01/15 04:54:27;;;;;;;0.00;0.00;;;;;;;;;;5114664;28;20043;-83
2023/01/15 04:56:54;;;;;;;0.00;0.00;;;;;;;;;;5114957;28;20490;-84
2023/01/15 04:59:21;;;;;;;0.00;0.00;;;;;;;;;;5114586;28;20047;-84
2023/01/15 05:01:47;;;;;;;0.00;0.00;;;;;;;;;;5114595;28;20052;-84
2023/01/15 05:04:13;;;;;;;0.30;0.25;;;;;;;;;;5114745;28;20054;-83
2023/01/15 05:06:39;;;;;;;0.00;0.00;;;;;;;;;;5115175;28;20387;-84
2023/01/15 05:09:05;;;;;;;0.00;0.00;;;;;;;;;;5114707;28;20039;-84
2023/01/15 05:11:34;;;;;;;0.00;0.00;;;;;;;;;;5114865;28;20042;-83
2023/01/15 05:14:00;;;;;;;0.00;0.00;;;;;;;;;;5114495;28;20048;-84
2023/01/15 05:16:28;;;;;;;0.00;0.00;;;;;;;;;;5114584;28;20035;-84
2023/01/15 05:18:56;;;;;;;0.00;0.00;;;;;;;;;;5115818;28;20406;-84
2023/01/15 05:21:22;;;;;;;0.00;0.00;;;;;;;;;;5096171;28;20485;-84
2023/01/15 05:23:52;;;;;;;0.00;0.00;;;;;;;;;;5114096;28;20127;-84
2023/01/15 05:26:18;;;;;;;0.00;0.00;;;;;;;;;;5113881;28;20119;-83
2023/01/15 05:28:45;;;;;;;0.00;0.00;;;;;;;;;;5113975;28;20039;-84
2023/01/15 05:31:12;;;;;;;0.00;0.00;;;;;;;;;;5113945;28;20057;-83
2023/01/15 05:33:38;;;;;;;0.00;0.00;;;;;;;;;;5114312;28;20104;-84
2023/01/15 05:36:05;;;;;;;0.00;0.00;;;;;;;;;;5113523;28;20067;-84
2023/01/15 05:38:32;;;;;;;0.00;0.00;;;;;;;;;;5113852;28;20431;-84
2023/01/15 05:40:58;;;;;;;0.00;0.00;;;;;;;;;;5113757;28;20048;-84
2023/01/15 05:43:24;;;;;;;2.30;0.43;;;;;;;;;;5114112;28;20043;-84
2023/01/15 05:45:50;;;;;;;0.00;0.00;;;;;;;;;;5096320;28;20122;-84
2023/01/15 05:48:16;;;;;;;0.00;0.00;;;;;;;;;;5115096;28;20119;-84
2023/01/15 05:50:41;;;;;;;0.00;0.00;;;;;;;;;;5113606;28;20048;-84
2023/01/15 05:53:07;;;;;;;0.00;0.00;;;;;;;;;;5113538;28;20039;-84
2023/01/15 05:55:33;;;;;;;0.00;0.00;;;;;;;;;;5114720;28;20130;-84
2023/01/15 05:57:59;;;;;;;0.00;0.00;;;;;;;;;;5113473;28;20054;-84
2023/01/15 06:00:25;;;;;;;0.00;0.00;;;;;;;;;;5113038;28;20035;-85
2023/01/15 06:02:51;;;;;;;0.00;0.00;;;;;;;;;;5113321;28;20044;-84
2023/01/15 06:05:19;;;;;;;0.00;0.00;;;;;;;;;;5112818;28;20044;-84
2023/01/15 06:07:48;;;;;;;0.00;0.00;;;;;;;;;;5096509;28;20344;-83
2023/01/15 06:10:17;;;;;;;0.00;0.00;;;;;;;;;;5113032;28;20082;-83
2023/01/15 06:12:44;;;;;;;0.00;0.00;;;;;;;;;;5113385;28;20046;-85
2023/01/15 06:15:11;;;;;;;0.00;0.00;;;;;;;;;;5112971;28;20424;-84
2023/01/15 06:17:37;;;;;;;0.00;0.00;;;;;;;;;;5113144;28;20036;-85
2023/01/15 06:20:03;;;;;;;0.00;0.00;;;;;;;;;;5112770;28;20058;-83
2023/01/15 06:22:29;;;;;;;0.00;0.00;;;;;;;;;;5114243;28;20043;-84
2023/01/15 06:24:55;;;;;;;0.00;0.00;;;;;;;;;;5114174;28;20127;-85
2023/01/15 06:27:21;;;;;;;0.00;0.00;;;;;;;;;;5112993;28;20044;-84
2023/01/15 06:29:47;;;;;;;0.35;0.35;;;;;;;;;;5095822;28;20097;-84
2023/01/15 06:32:13;;;;;;;8.00;1.85;;;;;;;;;;5112822;28;20046;-84
2023/01/15 06:34:42;;;;;;;0.00;0.00;;;;;;;;;;5112458;28;20583;-84
2023/01/15 06:37:08;;;;;;;0.00;0.00;;;;;;;;;;5095358;28;20444;-84
2023/01/15 06:39:34;;;;;;;0.00;0.00;;;;;;;;;;5112614;28;20040;-84
2023/01/15 06:47:29;;;;;;;0.00;0.00;;;;;;;;;;5113922;28;20036;-84
2023/01/15 06:49:56;;;;;;;0.00;0.00;;;;;;;;;;5113616;28;20047;-84
2023/01/15 06:52:26;;;;;;;0.00;0.00;;;;;;;;;;5112730;28;20394;-84
2023/01/15 06:54:52;;;;;;;0.00;0.00;;;;;;;;;;5112360;28;20382;-85
2023/01/15 06:57:19;;;;;;;0.00;0.00;;;;;;;;;;5111888;28;20042;-84
2023/01/15 06:59:45;;;;;;;0.00;0.00;;;;;;;;;;5113621;28;20185;-85
2023/01/15 07:02:11;;;;;;;0.00;0.00;;;;;;;;;;5111737;28;20093;-84
2023/01/15 07:04:37;;;;;;;0.00;0.00;;;;;;;;;;5112179;28;20039;-85
2023/01/15 07:07:03;;;;;;;0.00;0.00;;;;;;;;;;5112107;28;20497;-84
2023/01/15 07:09:29;;;;;;;0.00;0.00;;;;;;;;;;5111888;28;20040;-87
2023/01/15 07:11:55;;;;;;;0.00;0.00;;;;;;;;;;5111770;28;20111;-85
2023/01/15 07:14:23;;;;;;;0.00;0.00;;;;;;;;;;5111866;28;20036;-84
2023/01/15 07:16:49;;;;;;;0.00;0.00;;;;;;;;;;5111896;28;20043;-85
2023/01/15 07:19:16;;;;;;;0.00;0.00;;;;;;;;;;5111927;28;20042;-85
2023/01/15 07:21:42;;;;;;;0.00;0.00;;;;;;;;;;5111699;28;20047;-87
2023/01/15 07:24:09;;;;;;;0.10;0.03;;;;;;;;;;5094748;28;20031;-84
2023/01/15 07:26:35;;;;;;;0.00;0.00;;;;;;;;;;5094905;28;20134;-85
2023/01/15 07:29:01;;;;;;;0.00;0.00;;;;;;;;;;5111901;28;20062;-85
2023/01/15 07:31:27;;;;;;;0.00;0.00;;;;;;;;;;5111376;28;20479;-85
2023/01/15 07:33:55;;;;;;;0.20;0.20;;;;;;;;;;5111538;28;20040;-85
2023/01/15 07:36:21;;;;;;;0.00;0.00;;;;;;;;;;5111330;28;20242;-85
2023/01/15 07:38:47;;;;;;;0.00;0.00;;;;;;;;;;5111810;28;20128;-85
2023/01/15 07:49:45;;;;;;;0.00;0.00;;;;;;;;;;5111307;28;20465;-85
2023/01/15 07:52:21;;;;;;;0.00;0.00;;;;;;;;;;5111289;28;20053;-87
2023/01/15 07:54:48;;;;;;;0.00;0.00;;;;;;;;;;5111564;28;20479;-85
2023/01/15 07:57:16;;;;;;;0.00;0.00;;;;;;;;;;5111000;28;20059;-86
2023/01/15 07:59:42;;;;;;;0.00;0.00;;;;;;;;;;5111184;28;20134;-86
2023/01/15 08:02:08;;;;;;;0.00;0.00;;;;;;;;;;5110941;28;20496;-86
2023/01/15 08:04:34;;;;;;;0.00;0.00;;;;;;;;;;5111105;28;20394;-85
2023/01/15 08:07:00;;;;;;;0.00;0.00;;;;;;;;;;5111312;28;20665;-85
2023/01/15 08:09:27;;;;;;;0.00;0.00;;;;;;;;;;5111240;28;20050;-85
2023/01/15 08:17:22;;;;;;;0.00;0.00;;;;;;;;;;5110894;28;20101;-84
2023/01/15 08:19:48;;;;;;;0.00;0.00;;;;;;;;;;5112486;28;20040;-86
2023/01/15 08:22:14;;;;;;;0.00;0.00;;;;;;;;;;5110797;28;20113;-86
2023/01/15 08:24:40;;;;;;;0.00;0.00;;;;;;;;;;5110860;28;20127;-87
2023/01/15 08:27:06;;;;;;;0.00;0.00;;;;;;;;;;5093792;28;20031;-87
2023/01/15 08:29:32;;;;;;;0.00;0.00;;;;;;;;;;5094431;28;20096;-85
2023/01/15 08:31:58;;;;;;;0.00;0.00;;;;;;;;;;5110740;28;20123;-84
2023/01/15 08:34:24;;;;;;;0.00;0.00;;;;;;;;;;5110634;28;20083;-85
2023/01/15 08:36:55;;;;;;;0.10;0.05;;;;;;;;;;5110710;28;20048;-85
2023/01/15 08:39:22;;;;;;;0.00;0.00;;;;;;;;;;5110841;28;20057;-84
2023/01/15 08:41:48;;;;;;;0.10;0.10;;;;;;;;;;5110799;28;20085;-85
2023/01/15 08:44:15;;;;;;;0.00;0.00;;;;;;;;;;5110617;28;20032;-84
2023/01/15 08:46:41;;;;;;;0.00;0.00;;;;;;;;;;5110505;28;20099;-84
2023/01/15 08:49:09;;;;;;;0.00;0.00;;;;;;;;;;5093960;28;20097;-82
2023/01/15 08:51:35;;;;;;;0.00;0.00;;;;;;;;;;5110585;28;20040;-82
2023/01/15 08:54:01;;;;;;;0.00;0.00;;;;;;;;;;5110757;28;20043;-82
2023/01/15 08:56:27;;;;;;;0.00;0.00;;;;;;;;;;5111274;28;20383;-83
2023/01/15 08:58:53;;;;;;;0.00;0.00;;;;;;;;;;5114318;28;20050;-83
2023/01/15 09:01:19;;;;;;;0.00;0.00;;;;;;;;;;5114256;28;20122;-82
2023/01/15 09:03:45;;;;;;;3.25;0.10;;;;;;;;;;5114297;28;20119;-83
2023/01/15 09:06:12;;;;;;;0.00;0.00;;;;;;;;;;5114201;28;20047;-82
2023/01/15 09:08:38;;;;;;;0.00;0.00;;;;;;;;;;5113946;28;20390;-83
2023/01/15 09:11:05;;;;;;;0.00;0.00;;;;;;;;;;5115506;28;20038;-83
2023/01/15 09:13:33;;;;;;;0.10;0.10;;;;;;;;;;5115347;28;20035;-82
2023/01/15 09:15:59;;;;;;;0.00;0.00;;;;;;;;;;5114195;28;20071;-82
2023/01/15 09:18:25;;;;;;;0.00;0.00;;;;;;;;;;5115235;28;20386;-83
2023/01/15 09:20:51;;;;;;;0.00;0.00;;;;;;;;;;5113844;28;20040;-83
2023/01/15 09:23:17;;;;;;;0.00;0.00;;;;;;;;;;5113753;28;20050;-83
2023/01/15 09:25:54;;;;;;;0.00;0.00;;;;;;;;;;5113834;28;20039;-83
2023/01/15 09:28:20;;;;;;;0.00;0.00;;;;;;;;;;5113736;28;20040;-83
2023/01/15 09:30:46;;;;;;;0.00;0.00;;;;;;;;;;5113844;28;20343;-84
2023/01/15 09:33:12;;;;;;;0.00;0.00;;;;;;;;;;5113655;28;20044;-82
2023/01/15 09:35:38;;;;;;;0.00;0.00;;;;;;;;;;5114697;28;20047;-84
2023/01/15 09:38:04;;;;;;;0.00;0.00;;;;;;;;;;5113754;28;20055;-82
2023/01/15 09:40:36;;;;;;;0.00;0.00;;;;;;;;;;5113573;28;20471;-83
2023/01/15 09:43:06;;;;;;;0.00;0.00;;;;;;;;;;5113719;28;20498;-83
2023/01/15 09:45:35;;;;;;;0.00;0.00;;;;;;;;;;5113336;28;20039;-83
2023/01/15 09:48:07;;;;;;;17.85;0.70;;;;;;;;;;5113314;28;20089;-83
2023/01/15 09:50:52;;;;;;;0.00;0.00;;;;;;;;;;5113906;28;20122;-83
2023/01/15 09:53:35;;;;;;;0.00;0.00;;;;;;;;;;5114700;28;20063;-83
2023/01/15 09:56:02;;;;;;;0.00;0.00;;;;;;;;;;5113417;28;20055;-83
2023/01/15 09:58:33;;;;;;;0.00;0.00;;;;;;;;;;5112985;28;20035;-83
2023/01/15 10:00:59;;;;;;;0.00;0.00;;;;;;;;;;5113222;28;20043;-83
2023/01/15 10:03:44;;;;;;;0.00;0.00;;;;;;;;;;5113092;28;20081;-82
2023/01/15 10:06:16;;;;;;;0.10;0.00;;;;;;;;;;5113291;28;20047;-83
2023/01/15 10:08:46;;;;;;;0.30;0.30;;;;;;;;;;5112492;28;20036;-83
2023/01/15 10:11:15;;;;;;;0.00;0.00;;;;;;;;;;5114608;28;20112;-84
2023/01/15 10:13:44;;;;;;;0.00;0.00;;;;;;;;;;5114391;28;20167;-85
2023/01/15 10:16:11;;;;;;;0.00;0.00;;;;;;;;;;5112902;28;20044;-83
2023/01/15 10:18:41;;;;;;;0.00;0.00;;;;;;;;;;5113116;28;20567;-83
2023/01/15 10:21:23;;;;;;;0.00;0.00;;;;;;;;;;5113033;28;20079;-83
2023/01/15 10:23:52;;;;;;;0.00;0.00;;;;;;;;;;5112568;28;20389;-83
2023/01/15 10:26:39;;;;;;;0.00;0.00;;;;;;;;;;5095837;28;20510;-84
2023/01/15 10:29:11;;;;;;;0.00;0.00;;;;;;;;;;5095590;28;20039;-83
2023/01/15 10:31:52;;;;;;;0.00;0.00;;;;;;;;;;5112717;28;20043;-83
2023/01/15 10:34:34;;;;;;;0.00;0.00;;;;;;;;;;5112184;28;20060;-84
2023/01/15 10:37:11;;;;;;;0.00;0.00;;;;;;;;;;5113025;28;20529;-85
2023/01/15 10:39:37;;;;;;;0.00;0.00;;;;;;;;;;5113969;28;20042;-84
2023/01/15 10:42:06;;;;;;;0.05;0.05;;;;;;;;;;5113926;28;20040;-84
2023/01/15 10:44:38;;;;;;;0.00;0.00;;;;;;;;;;5112189;28;20141;-84
2023/01/15 10:47:08;;;;;;;0.00;0.00;;;;;;;;;;5113950;28;20036;-83
2023/01/15 10:49:36;;;;;;;0.00;0.00;;;;;;;;;;5095816;28;20119;-83
2023/01/15 10:52:18;;;;;;;0.00;0.00;;;;;;;;;;5112734;28;20042;-83
2023/01/15 10:54:47;;;;;;;0.28;0.28;;;;;;;;;;5112130;28;20483;-84
2023/01/15 10:57:38;;;;;;;0.00;0.00;;;;;;;;;;5110552;27;20039;-83
2023/01/15 11:00:04;;;;;;;0.00;0.00;;;;;;;;;;5133934;27;20053;-83
2023/01/15 11:02:37;;;;;;;0.00;0.00;;;;;;;;;;5114173;27;20047;-84
2023/01/15 11:05:03;;;;;;;0.00;0.00;;;;;;;;;;5106862;28;20044;-83
2023/01/15 11:07:49;;;;;;;0.00;0.00;;;;;;;;;;5092360;28;20449;-83
2023/01/15 11:10:16;;;;;;;0.00;0.00;;;;;;;;;;5092005;28;20040;-83
2023/01/15 11:21:12;;;;;;;0.00;0.00;;;;;;;;;;5110548;28;20047;-83
2023/01/15 11:23:38;;;;;;;0.00;0.00;;;;;;;;;;5111928;28;20054;-83
2023/01/15 11:26:04;;;;;;;0.00;0.00;;;;;;;;;;5113086;28;20383;-83
2023/01/15 11:28:34;;;;;;;0.00;0.00;;;;;;;;;;5091688;28;20097;-83
2023/01/15 11:31:00;;;;;;;0.00;0.00;;;;;;;;;;5075222;28;20094;-83
2023/01/15 11:33:27;;;;;;;0.00;0.00;;;;;;;;;;5093292;28;20036;-82
2023/01/15 11:35:57;;;;;;;0.00;0.00;;;;;;;;;;5094928;28;20398;-82
2023/01/15 11:38:23;;;;;;;0.00;0.00;;;;;;;;;;5111913;28;20051;-82
2023/01/15 11:40:54;;;;;;;0.00;0.00;;;;;;;;;;5112060;28;20047;-82
2023/01/15 11:50:42;;;;;;;;;;;;;;;;;;5108781;28;20047;-83
2023/01/15 11:51:57;;;;;;;0.00;0.00;;;;;;;;;;5113147;28;20394;-83
2023/01/15 11:54:24;;;;;;;0.00;0.00;;;;;;;;;;5112795;28;20036;-83
2023/01/15 11:56:50;;;;;;;0.00;0.00;;;;;;;;;;5111923;28;20088;-83
2023/01/15 11:59:18;;;;;;;0.00;0.00;;;;;;;;;;5112710;28;20111;-83
2023/01/15 12:01:56;;;;;;;0.00;0.00;;;;;;;;;;5111518;28;20050;-83
2023/01/15 12:04:32;;;;;;;0.00;0.00;;;;;;;;;;5094520;28;20114;-82
2023/01/15 12:06:58;;;;;;;0.10;0.00;;;;;;;;;;5112091;28;20036;-82
2023/01/15 12:09:27;;;;;;;0.00;0.00;;;;;;;;;;5111450;28;20100;-82
2023/01/15 12:11:53;;;;;;;0.00;0.00;;;;;;;;;;5111472;28;20370;-82
2023/01/15 12:14:34;;;;;;;0.00;0.00;;;;;;;;;;5111146;28;20052;-82
2023/01/15 12:17:12;;;;;;;0.00;0.00;;;;;;;;;;5112016;28;20040;-84
2023/01/15 12:20:05;;;;;;;0.00;0.00;;;;;;;;;;5112176;28;20036;-83
2023/01/15 12:22:31;;;;;;;0.00;0.00;;;;;;;;;;5111455;28;20049;-82
2023/01/15 12:25:13;;;;;;;0.00;0.00;;;;;;;;;;5111222;28;20131;-84
2023/01/15 12:27:53;;;;;;;0.00;0.00;;;;;;;;;;5112040;28;20066;-83
2023/01/15 12:30:39;;;;;;;0.00;0.00;;;;;;;;;;5094662;28;20586;-84
2023/01/15 12:33:05;;;;;;;0.00;0.00;;;;;;;;;;5115225;28;20479;-84
2023/01/15 12:35:34;;;;;;;0.00;0.00;;;;;;;;;;5114994;28;20055;-83
2023/01/15 12:38:03;;;;;;;0.00;0.00;;;;;;;;;;5114715;28;20065;-84
2023/01/15 12:40:48;;;;;;;0.00;0.00;;;;;;;;;;5104885;28;20071;-82
2023/01/15 12:46:02;;;;;;;0.00;0.00;;;;;;;;;;5114912;28;20330;-82
2023/01/15 12:48:50;;;;;;;0.00;0.00;;;;;;;;;;5115196;28;20540;-83
2023/01/15 12:51:20;;;;;;;0.00;0.00;;;;;;;;;;5114901;28;20491;-83
2023/01/15 12:53:51;;;;;;;0.00;0.00;;;;;;;;;;5114232;28;20113;-83
2023/01/15 12:56:36;;;;;;;0.00;0.00;;;;;;;;;;5114933;28;20070;-83
2023/01/15 12:59:05;;;;;;;0.00;0.00;;;;;;;;;;5097789;28;20402;-80
2023/01/15 13:01:50;;;;;;;0.00;0.00;;;;;;;;;;5105921;28;20487;-82
2023/01/15 13:04:30;;;;;;;0.00;0.00;;;;;;;;;;5103840;28;20184;-83
2023/01/15 13:06:58;;;;;;;0.00;0.00;;;;;;;;;;5094225;28;20036;-84
2023/01/15 13:09:42;;;;;;;0.00;0.00;;;;;;;;;;5093959;28;20032;-83
2023/01/15 13:12:15;;;;;;;0.00;0.00;;;;;;;;;;5094146;28;20036;-84
2023/01/15 13:14:41;;;;;;;0.00;0.00;;;;;;;;;;5094075;28;20568;-83
2023/01/15 13:17:17;;;;;;;0.00;0.00;;;;;;;;;;5093996;28;20495;-83
2023/01/15 13:19:48;;;;;;;0.00;0.00;;;;;;;;;;5076993;28;20071;-83
2023/01/15 13:22:21;;;;;;;0.00;0.00;;;;;;;;;;5093728;28;20051;-83
2023/01/15 13:25:05;;;;;;;0.35;0.05;;;;;;;;;;5076563;28;20047;-83
2023/01/15 13:27:53;;;;;;;0.00;0.00;;;;;;;;;;5093881;28;20048;-83
2023/01/15 13:30:22;;;;;;;0.00;0.00;;;;;;;;;;5093314;28;20402;-83
2023/01/15 13:32:51;;;;;;;0.00;0.00;;;;;;;;;;5093539;28;20040;-82
2023/01/15 13:35:27;;;;;;;0.00;0.00;;;;;;;;;;5094484;28;20090;-83
2023/01/15 13:37:55;;;;;;;0.00;0.00;;;;;;;;;;5093654;28;20073;-84
2023/01/15 13:40:24;;;;;;;0.00;0.00;;;;;;;;;;5093540;28;20247;-83
2023/01/15 13:42:51;;;;;;;0.00;0.00;;;;;;;;;;5092759;28;20257;-83
2023/01/15 13:45:25;;;;;;;0.00;0.00;;;;;;;;;;5094415;28;20587;-83
2023/01/15 13:47:52;;;;;;;0.00;0.00;;;;;;;;;;5093343;28;20046;-84
2023/01/15 13:50:30;;;;;;;0.00;0.00;;;;;;;;;;5093391;28;20040;-83
2023/01/15 13:53:00;;;;;;;0.00;0.00;;;;;;;;;;5093405;28;20040;-83
2023/01/15 13:55:30;;;;;;;0.00;0.00;;;;;;;;;;5092988;28;20040;-83
2023/01/15 13:57:56;;;;;;;0.20;0.20;;;;;;;;;;5076652;28;20044;-84
2023/01/15 14:00:27;;;;;;;0.00;0.00;;;;;;;;;;5092751;28;20476;-84
2023/01/15 14:02:55;;;;;;;0.00;0.00;;;;;;;;;;5093038;28;20054;-83
2023/01/15 14:05:32;;;;;;;0.00;0.00;;;;;;;;;;5092941;28;20036;-83
2023/01/15 14:08:00;;;;;;;0.00;0.00;;;;;;;;;;5093150;28;20115;-83
2023/01/15 14:10:34;;;;;;;0.00;0.00;;;;;;;;;;5093276;28;20039;-83
2023/01/15 14:13:19;;;;;;;0.00;0.00;;;;;;;;;;5093182;28;20119;-84
2023/01/15 14:15:57;;;;;;;0.00;0.00;;;;;;;;;;5076015;28;20174;-83
2023/01/15 14:18:26;;;;;;;0.00;0.00;;;;;;;;;;5093011;28;20415;-83
2023/01/15 14:21:09;;;;;;;0.00;0.00;;;;;;;;;;5093788;28;20423;-83
2023/01/15 14:23:35;;;;;;;0.00;0.00;;;;;;;;;;5092805;28;20055;-83
2023/01/15 14:26:07;;;;;;;0.00;0.00;;;;;;;;;;5092341;28;20122;-83
2023/01/15 14:28:34;;;;;;;0.00;0.00;;;;;;;;;;5092982;28;20047;-83
2023/01/15 14:31:19;;;;;;;0.00;0.00;;;;;;;;;;5092657;28;20052;-84
2023/01/15 14:34:04;;;;;;;0.00;0.00;;;;;;;;;;5093990;28;20036;-83
2023/01/15 14:36:35;;;;;;;0.00;0.00;;;;;;;;;;5092794;28;20074;-83
2023/01/15 14:39:02;;;;;;;0.00;0.00;;;;;;;;;;5092505;28;20449;-83
2023/01/15 14:41:30;;;;;;;0.00;0.00;;;;;;;;;;5092259;28;20044;-83
2023/01/15 14:43:58;;;;;;;0.00;0.00;;;;;;;;;;5093434;28;20506;-82
2023/01/15 14:46:26;;;;;;;0.00;0.00;;;;;;;;;;5091788;28;20188;-83
2023/01/15 14:48:53;;;;;;;0.00;0.00;;;;;;;;;;5092216;28;20044;-82
2023/01/15 14:51:27;;;;;;;0.00;0.00;;;;;;;;;;5091958;28;20036;-83
2023/01/15 14:54:03;;;;;;;0.00;0.00;;;;;;;;;;5091318;28;20043;-83
2023/01/15 14:56:37;;;;;;;0.00;0.00;;;;;;;;;;5092113;28;20479;-83
2023/01/15 14:59:09;;;;;;;0.00;0.00;;;;;;;;;;5093225;28;20090;-82
2023/01/15 15:01:43;;;;;;;0.00;0.00;;;;;;;;;;5091668;28;20044;-83
2023/01/15 15:04:22;;;;;;;0.00;0.00;;;;;;;;;;5092176;28;20124;-82
2023/01/15 15:06:50;;;;;;;0.00;0.00;;;;;;;;;;5091532;28;20040;-83
2023/01/15 15:09:26;;;;;;;0.00;0.00;;;;;;;;;;5093007;28;20074;-83
2023/01/15 15:14:39;;;;;;;0.00;0.00;;;;;;;;;;5092976;28;20448;-83
2023/01/15 15:17:06;;;;;;;0.00;0.00;;;;;;;;;;5091432;28;20114;-83
2023/01/15 15:19:40;;;;;;;0.00;0.00;;;;;;;;;;5091552;28;20036;-83
2023/01/15 15:22:09;;;;;;;0.00;0.00;;;;;;;;;;5091911;28;20127;-82
2023/01/15 15:24:42;;;;;;;0.00;0.00;;;;;;;;;;5091840;28;20498;-83
2023/01/15 15:27:09;;;;;;;0.00;0.00;;;;;;;;;;5091775;28;20036;-83
2023/01/15 15:29:35;;;;;;;0.00;0.00;;;;;;;;;;5091848;28;20036;-83
2023/01/15 15:32:02;;;;;;;0.00;0.00;;;;;;;;;;5074711;28;20043;-83
2023/01/15 15:34:34;;;;;;;0.00;0.00;;;;;;;;;;5091553;28;20400;-82
2023/01/15 15:37:02;;;;;;;0.00;0.00;;;;;;;;;;5091337;28;20055;-82
2023/01/15 15:39:28;;;;;;;0.00;0.00;;;;;;;;;;5091400;28;20079;-83
2023/01/15 15:50:21;;;;;;;0.00;0.00;;;;;;;;;;5091331;28;20407;-83